sensor_id;sensor_type;location;lat;lon;timestamp;pressure;altitude;pressure_sealevel;temperature;humidity
24746;BME280;12845;52.042;6.838;2023-02-15T00:00:52;-18044.91;;;0.65;100.00
24746;BME280;12845;52.042;6.838;2023-02-15T00:03:20;-18044.91;;;0.65;100.00
24746;BME280;12845;52.042;6.838;2023-02-15T00:05:45;-18044.75;;;0.64;100.00
24746;BME280;12845;52.042;6.838;2023-02-15T00:08:10;-18043.25;;;0.59;100.00
24746;BME280;12845;52.042;6.838;2023-02-15T00:10:35;-18042.28;;;0.55;100.00
24746;BME280;12845;52.042;6.838;2023-02-15T00:13:00;-18040.88;;;0.50;100.00
24746;BME280;12845;52.042;6.838;2023-02-15T00:15:26;-18041.44;;;0.52;100.00
24746;BME280;12845;52.042;6.838;2023-02-15T00:17:51;-18040.63;;;0.49;100.00
24746;BME280;12845;52.042;6.838;2023-02-15T00:20:16;-18041.03;;;0.51;100.00
24746;BME280;12845;52.042;6.838;2023-02-15T00:22:43;-18040.75;;;0.50;100.00
24746;BME280;12845;52.042;6.838;2023-02-15T00:25:08;-18040.34;;;0.48;100.00
24746;BME280;12845;52.042;6.838;2023-02-15T00:27:33;-18039.50;;;0.45;100.00
24746;BME280;12845;52.042;6.838;2023-02-15T00:29:59;-18038.66;;;0.42;100.00
24746;BME280;12845;52.042;6.838;2023-02-15T00:32:24;-18039.09;;;0.43;100.00
24746;BME280;12845;52.042;6.838;2023-02-15T00:34:50;-18036.72;;;0.35;100.00
24746;BME280;12845;52.042;6.838;2023-02-15T00:37:15;-18038.53;;;0.41;100.00
24746;BME280;12845;52.042;6.838;2023-02-15T00:39:40;-18040.47;;;0.49;100.00
24746;BME280;12845;52.042;6.838;2023-02-15T00:42:05;-18040.75;;;0.50;100.00
24746;BME280;12845;52.042;6.838;2023-02-15T00:44:31;-18039.91;;;0.47;100.00
24746;BME280;12845;52.042;6.838;2023-02-15T00:46:56;-18038.41;;;0.41;100.00
24746;BME280;12845;52.042;6.838;2023-02-15T00:49:21;-18038.41;;;0.41;100.00
24746;BME280;12845;52.042;6.838;2023-02-15T00:51:46;-18040.47;;;0.49;100.00
24746;BME280;12845;52.042;6.838;2023-02-15T00:54:12;-18040.19;;;0.48;100.00
24746;BME280;12845;52.042;6.838;2023-02-15T00:56:37;-18039.50;;;0.45;100.00
24746;BME280;12845;52.042;6.838;2023-02-15T00:59:02;-18039.63;;;0.45;100.00
24746;BME280;12845;52.042;6.838;2023-02-15T01:01:27;-18037.16;;;0.36;100.00
24746;BME280;12845;52.042;6.838;2023-02-15T01:03:53;-18035.91;;;0.32;100.00
24746;BME280;12845;52.042;6.838;2023-02-15T01:06:18;-18036.72;;;0.35;100.00
24746;BME280;12845;52.042;6.838;2023-02-15T01:08:44;-18037.69;;;0.38;100.00
24746;BME280;12845;52.042;6.838;2023-02-15T01:11:11;-18037.16;;;0.36;100.00
24746;BME280;12845;52.042;6.838;2023-02-15T01:13:36;-18037.84;;;0.39;100.00
24746;BME280;12845;52.042;6.838;2023-02-15T01:16:02;-18037.00;;;0.36;100.00
24746;BME280;12845;52.042;6.838;2023-02-15T01:18:28;-18035.34;;;0.30;100.00
24746;BME280;12845;52.042;6.838;2023-02-15T01:20:53;-18034.22;;;0.26;100.00
24746;BME280;12845;52.042;6.838;2023-02-15T01:23:19;-18035.22;;;0.29;100.00
24746;BME280;12845;52.042;6.838;2023-02-15T01:25:44;-18035.06;;;0.29;100.00
24746;BME280;12845;52.042;6.838;2023-02-15T01:28:10;-18034.94;;;0.28;100.00
24746;BME280;12845;52.042;6.838;2023-02-15T01:30:35;-18034.78;;;0.28;100.00
24746;BME280;12845;52.042;6.838;2023-02-15T01:33:00;-18035.06;;;0.29;100.00
24746;BME280;12845;52.042;6.838;2023-02-15T01:35:26;-18033.53;;;0.23;100.00
24746;BME280;12845;52.042;6.838;2023-02-15T01:37:51;-18032.56;;;0.19;100.00
24746;BME280;12845;52.042;6.838;2023-02-15T01:40:17;-18032.16;;;0.18;100.00
24746;BME280;12845;52.042;6.838;2023-02-15T01:42:42;-18032.84;;;0.20;100.00
24746;BME280;12845;52.042;6.838;2023-02-15T01:50:07;-18031.75;;;0.16;100.00
24746;BME280;12845;52.042;6.838;2023-02-15T01:52:34;-18029.66;;;0.09;100.00
24746;BME280;12845;52.042;6.838;2023-02-15T01:55:02;-18028.69;;;0.05;100.00
24746;BME280;12845;52.042;6.838;2023-02-15T01:57:27;-18028.16;;;0.03;100.00
24746;BME280;12845;52.042;6.838;2023-02-15T01:59:54;-18026.75;;;-0.02;100.00
24746;BME280;12845;52.042;6.838;2023-02-15T02:02:21;-18027.03;;;-0.01;100.00
24746;BME280;12845;52.042;6.838;2023-02-15T02:04:50;-18026.63;;;-0.03;100.00
24746;BME280;12845;52.042;6.838;2023-02-15T02:07:17;-18026.06;;;-0.05;100.00
24746;BME280;12845;52.042;6.838;2023-02-15T02:09:44;-18026.75;;;-0.02;100.00
24746;BME280;12845;52.042;6.838;2023-02-15T02:12:10;-18026.75;;;-0.02;100.00
24746;BME280;12845;52.042;6.838;2023-02-15T02:14:36;-18026.91;;;-0.02;100.00
24746;BME280;12845;52.042;6.838;2023-02-15T02:17:12;-18027.31;;;0.00;100.00
24746;BME280;12845;52.042;6.838;2023-02-15T02:35:30;-18026.47;;;-0.03;100.00
24746;BME280;12845;52.042;6.838;2023-02-15T02:40:43;-18026.75;;;-0.02;100.00
24746;BME280;12845;52.042;6.838;2023-02-15T02:43:12;-18026.47;;;-0.03;100.00
24746;BME280;12845;52.042;6.838;2023-02-15T02:45:45;-18025.38;;;-0.07;100.00
24746;BME280;12845;52.042;6.838;2023-02-15T02:48:13;-18025.66;;;-0.06;100.00
24746;BME280;12845;52.042;6.838;2023-02-15T02:50:40;-18024.53;;;-0.10;100.00
24746;BME280;12845;52.042;6.838;2023-02-15T02:53:05;-18022.75;;;-0.17;100.00
24746;BME280;12845;52.042;6.838;2023-02-15T02:58:14;-18022.59;;;-0.17;100.00
24746;BME280;12845;52.042;6.838;2023-02-15T03:01:01;-18023.00;;;-0.16;100.00
24746;BME280;12845;52.042;6.838;2023-02-15T03:06:00;-18022.75;;;-0.17;100.00
24746;BME280;12845;52.042;6.838;2023-02-15T03:08:30;-18021.91;;;-0.20;100.00
24746;BME280;12845;52.042;6.838;2023-02-15T03:10:59;-18021.22;;;-0.22;100.00
24746;BME280;12845;52.042;6.838;2023-02-15T03:13:25;-18020.94;;;-0.24;100.00
24746;BME280;12845;52.042;6.838;2023-02-15T03:15:51;-18020.38;;;-0.26;100.00
24746;BME280;12845;52.042;6.838;2023-02-15T03:18:41;-18019.56;;;-0.29;100.00
24746;BME280;12845;52.042;6.838;2023-02-15T03:21:08;-18019.00;;;-0.31;100.00
24746;BME280;12845;52.042;6.838;2023-02-15T03:23:34;-18019.00;;;-0.31;100.00
24746;BME280;12845;52.042;6.838;2023-02-15T03:26:04;-18018.16;;;-0.34;100.00
24746;BME280;12845;52.042;6.838;2023-02-15T03:28:32;-18019.13;;;-0.30;100.00
24746;BME280;12845;52.042;6.838;2023-02-15T03:30:58;-18018.84;;;-0.31;100.00
24746;BME280;12845;52.042;6.838;2023-02-15T03:33:25;-18018.44;;;-0.33;100.00
24746;BME280;12845;52.042;6.838;2023-02-15T03:38:17;-18020.78;;;-0.24;100.00
24746;BME280;12845;52.042;6.838;2023-02-15T03:40:44;-18021.50;;;-0.21;100.00
24746;BME280;12845;52.042;6.838;2023-02-15T03:43:33;-18019.56;;;-0.29;100.00
24746;BME280;12845;52.042;6.838;2023-02-15T03:46:08;-18019.13;;;-0.30;100.00
24746;BME280;12845;52.042;6.838;2023-02-15T03:48:37;-18019.00;;;-0.31;100.00
24746;BME280;12845;52.042;6.838;2023-02-15T03:51:08;-18019.41;;;-0.29;100.00
24746;BME280;12845;52.042;6.838;2023-02-15T03:53:53;-18018.72;;;-0.32;100.00
24746;BME280;12845;52.042;6.838;2023-02-15T03:56:19;-18018.72;;;-0.32;100.00
24746;BME280;12845;52.042;6.838;2023-02-15T03:58:44;-18018.44;;;-0.33;100.00
24746;BME280;12845;52.042;6.838;2023-02-15T04:04:10;-18016.63;;;-0.39;100.00
24746;BME280;12845;52.042;6.838;2023-02-15T04:06:37;-18016.38;;;-0.40;100.00
24746;BME280;12845;52.042;6.838;2023-02-15T04:09:02;-18015.25;;;-0.44;100.00
24746;BME280;12845;52.042;6.838;2023-02-15T04:11:45;-18014.16;;;-0.49;100.00
24746;BME280;12845;52.042;6.838;2023-02-15T04:14:11;-18013.31;;;-0.52;100.00
24746;BME280;12845;52.042;6.838;2023-02-15T04:16:54;-18012.47;;;-0.55;100.00
24746;BME280;12845;52.042;6.838;2023-02-15T04:19:20;-18012.63;;;-0.54;100.00
24746;BME280;12845;52.042;6.838;2023-02-15T04:22:03;-18010.97;;;-0.60;100.00
24746;BME280;12845;52.042;6.838;2023-02-15T04:24:47;-18010.53;;;-0.62;100.00
24746;BME280;12845;52.042;6.838;2023-02-15T04:27:31;-18009.84;;;-0.64;100.00
24746;BME280;12845;52.042;6.838;2023-02-15T04:29:56;-18010.41;;;-0.62;100.00
24746;BME280;12845;52.042;6.838;2023-02-15T04:32:22;-18009.84;;;-0.64;100.00
24746;BME280;12845;52.042;6.838;2023-02-15T04:34:47;-18008.75;;;-0.69;100.00
24746;BME280;12845;52.042;6.838;2023-02-15T04:37:12;-18007.91;;;-0.72;100.00
24746;BME280;12845;52.042;6.838;2023-02-15T04:39:37;-18007.34;;;-0.74;100.00
24746;BME280;12845;52.042;6.838;2023-02-15T04:42:03;-18007.34;;;-0.74;100.00
24746;BME280;12845;52.042;6.838;2023-02-15T04:44:28;-18007.06;;;-0.75;100.00
24746;BME280;12845;52.042;6.838;2023-02-15T04:46:53;-18006.66;;;-0.76;100.00
24746;BME280;12845;52.042;6.838;2023-02-15T04:49:19;-18006.53;;;-0.77;100.00
24746;BME280;12845;52.042;6.838;2023-02-15T04:51:44;-18005.97;;;-0.79;100.00
24746;BME280;12845;52.042;6.838;2023-02-15T04:54:10;-18005.41;;;-0.81;100.00
24746;BME280;12845;52.042;6.838;2023-02-15T04:56:35;-18005.41;;;-0.81;100.00
24746;BME280;12845;52.042;6.838;2023-02-15T04:59:02;-18005.41;;;-0.81;100.00
24746;BME280;12845;52.042;6.838;2023-02-15T05:01:28;-18005.41;;;-0.81;100.00
24746;BME280;12845;52.042;6.838;2023-02-15T05:03:53;-18004.56;;;-0.84;100.00
24746;BME280;12845;52.042;6.838;2023-02-15T05:06:18;-18004.56;;;-0.84;100.00
24746;BME280;12845;52.042;6.838;2023-02-15T05:08:43;-18003.59;;;-0.87;100.00
24746;BME280;12845;52.042;6.838;2023-02-15T05:11:09;-18004.03;;;-0.86;100.00
24746;BME280;12845;52.042;6.838;2023-02-15T05:13:34;-18004.44;;;-0.84;100.00
24746;BME280;12845;52.042;6.838;2023-02-15T05:15:59;-18003.47;;;-0.88;100.00
24746;BME280;12845;52.042;6.838;2023-02-15T05:18:24;-18003.19;;;-0.89;100.00
24746;BME280;12845;52.042;6.838;2023-02-15T05:20:49;-18003.75;;;-0.87;100.00
24746;BME280;12845;52.042;6.838;2023-02-15T05:23:15;-18003.34;;;-0.88;100.00
24746;BME280;12845;52.042;6.838;2023-02-15T05:25:40;-18003.59;;;-0.87;100.00
24746;BME280;12845;52.042;6.838;2023-02-15T05:28:25;-18005.69;;;-0.80;100.00
24746;BME280;12845;52.042;6.838;2023-02-15T05:31:10;-18005.69;;;-0.80;100.00
24746;BME280;12845;52.042;6.838;2023-02-15T05:33:36;-18004.56;;;-0.84;100.00
24746;BME280;12845;52.042;6.838;2023-02-15T05:36:02;-18006.25;;;-0.78;100.00
24746;BME280;12845;52.042;6.838;2023-02-15T05:38:27;-18008.88;;;-0.68;100.00
24746;BME280;12845;52.042;6.838;2023-02-15T05:40:53;-18010.00;;;-0.64;100.00
24746;BME280;12845;52.042;6.838;2023-02-15T05:43:18;-18011.94;;;-0.57;100.00
24746;BME280;12845;52.042;6.838;2023-02-15T05:45:45;-18011.22;;;-0.59;100.00
24746;BME280;12845;52.042;6.838;2023-02-15T05:48:10;-18009.56;;;-0.65;100.00
24746;BME280;12845;52.042;6.838;2023-02-15T05:50:35;-18008.59;;;-0.69;100.00
24746;BME280;12845;52.042;6.838;2023-02-15T05:53:00;-18009.00;;;-0.68;100.00
24746;BME280;12845;52.042;6.838;2023-02-15T05:55:26;-18008.31;;;-0.70;100.00
24746;BME280;12845;52.042;6.838;2023-02-15T05:57:51;-18009.56;;;-0.65;100.00
24746;BME280;12845;52.042;6.838;2023-02-15T06:00:17;-18010.25;;;-0.63;100.00
24746;BME280;12845;52.042;6.838;2023-02-15T06:02:42;-18011.50;;;-0.58;100.00
24746;BME280;12845;52.042;6.838;2023-02-15T06:05:07;-18010.97;;;-0.60;100.00
24746;BME280;12845;52.042;6.838;2023-02-15T06:07:32;-18009.56;;;-0.65;100.00
24746;BME280;12845;52.042;6.838;2023-02-15T06:09:58;-18011.09;;;-0.60;100.00
24746;BME280;12845;52.042;6.838;2023-02-15T06:12:23;-18012.47;;;-0.55;100.00
24746;BME280;12845;52.042;6.838;2023-02-15T06:14:48;-18011.66;;;-0.58;100.00
24746;BME280;12845;52.042;6.838;2023-02-15T06:17:14;-18014.16;;;-0.49;100.00
24746;BME280;12845;52.042;6.838;2023-02-15T06:19:39;-18015.13;;;-0.45;100.00
24746;BME280;12845;52.042;6.838;2023-02-15T06:22:04;-18014.41;;;-0.48;100.00
24746;BME280;12845;52.042;6.838;2023-02-15T06:24:31;-18014.00;;;-0.49;100.00
24746;BME280;12845;52.042;6.838;2023-02-15T06:26:56;-18015.25;;;-0.44;100.00
24746;BME280;12845;52.042;6.838;2023-02-15T06:29:21;-18014.41;;;-0.48;100.00
24746;BME280;12845;52.042;6.838;2023-02-15T06:31:46;-18014.84;;;-0.46;100.00
24746;BME280;12845;52.042;6.838;2023-02-15T06:34:12;-18014.28;;;-0.48;100.00
24746;BME280;12845;52.042;6.838;2023-02-15T06:36:37;-18014.56;;;-0.47;100.00
24746;BME280;12845;52.042;6.838;2023-02-15T06:39:03;-18013.88;;;-0.50;100.00
24746;BME280;12845;52.042;6.838;2023-02-15T06:41:28;-18013.19;;;-0.52;100.00
24746;BME280;12845;52.042;6.838;2023-02-15T06:43:53;-18012.91;;;-0.53;100.00
24746;BME280;12845;52.042;6.838;2023-02-15T06:46:19;-18012.91;;;-0.53;100.00
24746;BME280;12845;52.042;6.838;2023-02-15T06:48:44;-18014.00;;;-0.49;100.00
24746;BME280;12845;52.042;6.838;2023-02-15T06:51:09;-18013.19;;;-0.52;100.00
24746;BME280;12845;52.042;6.838;2023-02-15T06:53:34;-18011.22;;;-0.59;100.00
24746;BME280;12845;52.042;6.838;2023-02-15T06:56:01;-18011.09;;;-0.60;100.00
24746;BME280;12845;52.042;6.838;2023-02-15T06:58:27;-18012.91;;;-0.53;100.00
24746;BME280;12845;52.042;6.838;2023-02-15T07:00:53;-18016.09;;;-0.41;100.00
24746;BME280;12845;52.042;6.838;2023-02-15T07:03:18;-18019.41;;;-0.29;100.00
24746;BME280;12845;52.042;6.838;2023-02-15T07:05:43;-18023.84;;;-0.13;100.00
24746;BME280;12845;52.042;6.838;2023-02-15T07:08:09;-18026.75;;;-0.02;100.00
24746;BME280;12845;52.042;6.838;2023-02-15T07:10:34;-18026.75;;;-0.02;100.00
24746;BME280;12845;52.042;6.838;2023-02-15T07:12:59;-18030.09;;;0.10;100.00
24746;BME280;12845;52.042;6.838;2023-02-15T07:15:25;-18030.34;;;0.11;100.00
24746;BME280;12845;52.042;6.838;2023-02-15T07:17:50;-18032.72;;;0.20;100.00
24746;BME280;12845;52.042;6.838;2023-02-15T07:20:17;-18034.22;;;0.26;100.00
24746;BME280;12845;52.042;6.838;2023-02-15T07:22:43;-18036.19;;;0.33;100.00
24746;BME280;12845;52.042;6.838;2023-02-15T07:25:08;-18037.97;;;0.39;100.00
24746;BME280;12845;52.042;6.838;2023-02-15T07:27:34;-18039.91;;;0.47;100.00
24746;BME280;12845;52.042;6.838;2023-02-15T07:29:59;-18041.44;;;0.52;100.00
24746;BME280;12845;52.042;6.838;2023-02-15T07:32:28;-18042.28;;;0.55;100.00
24746;BME280;12845;52.042;6.838;2023-02-15T07:34:54;-18043.09;;;0.58;100.00
24746;BME280;12845;52.042;6.838;2023-02-15T07:37:19;-18044.22;;;0.62;100.00
24746;BME280;12845;52.042;6.838;2023-02-15T07:39:45;-18044.91;;;0.65;100.00
24746;BME280;12845;52.042;6.838;2023-02-15T07:42:10;-18046.84;;;0.72;100.00
24746;BME280;12845;52.042;6.838;2023-02-15T07:44:35;-18048.38;;;0.78;100.00
24746;BME280;12845;52.042;6.838;2023-02-15T07:47:00;-18050.16;;;0.84;100.00
24746;BME280;12845;52.042;6.838;2023-02-15T07:49:26;-18052.53;;;0.93;100.00
24746;BME280;12845;52.042;6.838;2023-02-15T07:51:51;-18053.63;;;0.97;100.00
24746;BME280;12845;52.042;6.838;2023-02-15T07:54:16;-18055.00;;;1.02;100.00
24746;BME280;12845;52.042;6.838;2023-02-15T07:56:41;-18056.53;;;1.08;100.00
24746;BME280;12845;52.042;6.838;2023-02-15T07:59:07;-18058.34;;;1.15;100.00
24746;BME280;12845;52.042;6.838;2023-02-15T08:01:36;-18059.72;;;1.20;100.00
24746;BME280;12845;52.042;6.838;2023-02-15T08:04:02;-18061.09;;;1.25;100.00
24746;BME280;12845;52.042;6.838;2023-02-15T08:06:29;-18062.75;;;1.31;100.00
24746;BME280;12845;52.042;6.838;2023-02-15T08:08:55;-18063.31;;;1.33;100.00
24746;BME280;12845;52.042;6.838;2023-02-15T08:11:21;-18064.56;;;1.38;100.00
24746;BME280;12845;52.042;6.838;2023-02-15T08:14:02;-18066.78;;;1.46;100.00
24746;BME280;12845;52.042;6.838;2023-02-15T08:19:07;-18069.97;;;1.57;100.00
24746;BME280;12845;52.042;6.838;2023-02-15T08:21:33;-18072.03;;;1.65;100.00
24746;BME280;12845;52.042;6.838;2023-02-15T08:23:58;-18073.84;;;1.72;100.00
24746;BME280;12845;52.042;6.838;2023-02-15T08:26:24;-18075.09;;;1.76;100.00
24746;BME280;12845;52.042;6.838;2023-02-15T08:28:50;-18076.88;;;1.83;100.00
24746;BME280;12845;52.042;6.838;2023-02-15T08:31:16;-18078.25;;;1.88;100.00
24746;BME280;12845;52.042;6.838;2023-02-15T08:33:42;-18080.34;;;1.96;100.00
24746;BME280;12845;52.042;6.838;2023-02-15T08:36:09;-18082.13;;;2.02;100.00
24746;BME280;12845;52.042;6.838;2023-02-15T08:38:35;-18083.66;;;2.08;100.00
24746;BME280;12845;52.042;6.838;2023-02-15T08:41:14;-18085.75;;;2.16;100.00
24746;BME280;12845;52.042;6.838;2023-02-15T08:43:40;-18087.53;;;2.22;100.00
24746;BME280;12845;52.042;6.838;2023-02-15T08:46:05;-18088.78;;;2.27;100.00
24746;BME280;12845;52.042;6.838;2023-02-15T08:48:31;-18091.00;;;2.35;100.00
24746;BME280;12845;52.042;6.838;2023-02-15T08:50:56;-18092.66;;;2.41;100.00
24746;BME280;12845;52.042;6.838;2023-02-15T08:53:21;-18094.16;;;2.47;100.00
24746;BME280;12845;52.042;6.838;2023-02-15T08:55:47;-18096.25;;;2.55;100.00
24746;BME280;12845;52.042;6.838;2023-02-15T08:58:19;-18099.16;;;2.65;100.00
24746;BME280;12845;52.042;6.838;2023-02-15T09:00:44;-18102.19;;;2.77;100.00
24746;BME280;12845;52.042;6.838;2023-02-15T09:03:10;-18104.69;;;2.86;100.00
24746;BME280;12845;52.042;6.838;2023-02-15T09:05:35;-18106.47;;;2.92;100.00
24746;BME280;12845;52.042;6.838;2023-02-15T09:08:00;-18107.72;;;2.97;100.00
24746;BME280;12845;52.042;6.838;2023-02-15T09:10:25;-18110.06;;;3.06;100.00
24746;BME280;12845;52.042;6.838;2023-02-15T09:12:51;-18113.13;;;3.17;100.00
24746;BME280;12845;52.042;6.838;2023-02-15T09:15:16;-18114.09;;;3.21;100.00
24746;BME280;12845;52.042;6.838;2023-02-15T09:17:42;-18115.59;;;3.26;100.00
24746;BME280;12845;52.042;6.838;2023-02-15T09:20:07;-18116.84;;;3.31;100.00
24746;BME280;12845;52.042;6.838;2023-02-15T09:22:32;-18119.63;;;3.41;100.00
24746;BME280;12845;52.042;6.838;2023-02-15T09:24:58;-18121.00;;;3.46;100.00
24746;BME280;12845;52.042;6.838;2023-02-15T09:27:23;-18121.97;;;3.50;100.00
24746;BME280;12845;52.042;6.838;2023-02-15T09:29:48;-18124.59;;;3.59;100.00
24746;BME280;12845;52.042;6.838;2023-02-15T09:32:13;-18127.78;;;3.71;100.00
24746;BME280;12845;52.042;6.838;2023-02-15T09:34:39;-18129.84;;;3.79;100.00
24746;BME280;12845;52.042;6.838;2023-02-15T09:37:04;-18131.91;;;3.87;100.00
24746;BME280;12845;52.042;6.838;2023-02-15T09:39:30;-18134.13;;;3.95;100.00
24746;BME280;12845;52.042;6.838;2023-02-15T09:41:59;-18137.16;;;4.06;100.00
24746;BME280;12845;52.042;6.838;2023-02-15T10:00:31;-18154.56;;;4.70;100.00
24746;BME280;12845;52.042;6.838;2023-02-15T10:04:57;-18159.38;;;4.88;100.00
24746;BME280;12845;52.042;6.838;2023-02-15T10:21:23;-18178.03;;;5.57;100.00
24746;BME280;12845;52.042;6.838;2023-02-15T10:26:48;-18181.63;;;5.71;100.00
24746;BME280;12845;52.042;6.838;2023-02-15T10:29:57;-18182.84;;;5.75;100.00
24746;BME280;12845;52.042;6.838;2023-02-15T10:34:41;-18185.75;;;5.86;100.00
24746;BME280;12845;52.042;6.838;2023-02-15T10:49:36;-18198.31;;;6.32;100.00
24746;BME280;12845;52.042;6.838;2023-02-15T10:52:10;-18201.75;;;6.45;100.00
24746;BME280;12845;52.042;6.838;2023-02-15T10:54:46;-18203.97;;;6.53;100.00
24746;BME280;12845;52.042;6.838;2023-02-15T11:00:02;-18207.97;;;6.68;100.00
24746;BME280;12845;52.042;6.838;2023-02-15T11:05:07;-18213.59;;;6.89;100.00
24746;BME280;12845;52.042;6.838;2023-02-15T11:07:41;-18216.09;;;6.98;100.00
24746;BME280;12845;52.042;6.838;2023-02-15T11:12:52;-18220.50;;;7.15;100.00
24746;BME280;12845;52.042;6.838;2023-02-15T11:15:22;-18224.34;;;7.29;100.00
24746;BME280;12845;52.042;6.838;2023-02-15T11:18:02;-18226.69;;;7.38;100.00
24746;BME280;12845;52.042;6.838;2023-02-15T11:20:32;-18228.75;;;7.45;100.00
24746;BME280;12845;52.042;6.838;2023-02-15T11:22:58;-18231.53;;;7.56;100.00
24746;BME280;12845;52.042;6.838;2023-02-15T11:25:25;-18235.38;;;7.70;100.00
24746;BME280;12845;52.042;6.838;2023-02-15T11:27:50;-18238.69;;;7.82;100.00
24746;BME280;12845;52.042;6.838;2023-02-15T11:30:21;-18240.88;;;7.90;100.00
24746;BME280;12845;52.042;6.838;2023-02-15T11:32:47;-18243.63;;;8.01;100.00
24746;BME280;12845;52.042;6.838;2023-02-15T11:37:47;-18247.50;;;8.15;100.00
24746;BME280;12845;52.042;6.838;2023-02-15T11:40:21;-18249.97;;;8.24;100.00
24746;BME280;12845;52.042;6.838;2023-02-15T11:42:49;-18250.94;;;8.28;100.00
24746;BME280;12845;52.042;6.838;2023-02-15T11:45:26;-18254.09;;;8.40;100.00
24746;BME280;12845;52.042;6.838;2023-02-15T11:47:52;-18257.28;;;8.51;100.00
24746;BME280;12845;52.042;6.838;2023-02-15T11:50:28;-18260.84;;;8.65;100.00
24746;BME280;12845;52.042;6.838;2023-02-15T11:53:01;-18262.63;;;8.71;100.00
24746;BME280;12845;52.042;6.838;2023-02-15T11:55:29;-18263.75;;;8.75;100.00
24746;BME280;12845;52.042;6.838;2023-02-15T11:58:02;-18266.34;;;8.85;100.00
24746;BME280;12845;52.042;6.838;2023-02-15T12:00:33;-18269.81;;;8.98;100.00
24746;BME280;12845;52.042;6.838;2023-02-15T12:03:02;-18273.66;;;9.12;100.00
24746;BME280;12845;52.042;6.838;2023-02-15T12:05:30;-18276.13;;;9.21;100.00
24746;BME280;12845;52.042;6.838;2023-02-15T12:08:03;-18277.78;;;9.27;100.00
24746;BME280;12845;52.042;6.838;2023-02-15T12:10:34;-18282.03;;;9.43;100.00
24746;BME280;12845;52.042;6.838;2023-02-15T12:15:35;-18284.50;;;9.53;100.00
24746;BME280;12845;52.042;6.838;2023-02-15T12:18:01;-18289.19;;;9.70;100.00
24746;BME280;12845;52.042;6.838;2023-02-15T12:20:33;-18291.53;;;9.79;100.00
24746;BME280;12845;52.042;6.838;2023-02-15T12:23:03;-18296.06;;;9.96;100.00
24746;BME280;12845;52.042;6.838;2023-02-15T12:27:55;-18303.22;;;10.22;100.00
24746;BME280;12845;52.042;6.838;2023-02-15T12:30:36;-18308.31;;;10.41;100.00
24746;BME280;12845;52.042;6.838;2023-02-15T12:33:10;-18311.31;;;10.52;100.00
24746;BME280;12845;52.042;6.838;2023-02-15T12:35:39;-18315.16;;;10.67;100.00
24746;BME280;12845;52.042;6.838;2023-02-15T12:40:31;-18322.44;;;10.94;100.00
24746;BME280;12845;52.042;6.838;2023-02-15T12:42:56;-18325.06;;;11.03;100.00
24746;BME280;12845;52.042;6.838;2023-02-15T12:45:26;-18328.78;;;11.17;100.00
24746;BME280;12845;52.042;6.838;2023-02-15T12:50:36;-18333.72;;;11.36;100.00
24746;BME280;12845;52.042;6.838;2023-02-15T12:53:21;-18334.25;;;11.38;100.00
24746;BME280;12845;52.042;6.838;2023-02-15T12:55:55;-18337.69;;;11.50;100.00
24746;BME280;12845;52.042;6.838;2023-02-15T12:58:22;-18341.00;;;11.63;100.00
24746;BME280;12845;52.042;6.838;2023-02-15T13:01:12;-18342.78;;;11.69;100.00
24746;BME280;12845;52.042;6.838;2023-02-15T13:03:47;-18344.41;;;11.75;100.00
24746;BME280;12845;52.042;6.838;2023-02-15T13:06:17;-18344.00;;;11.74;100.00
24746;BME280;12845;52.042;6.838;2023-02-15T13:08:46;-18345.94;;;11.81;100.00
24746;BME280;12845;52.042;6.838;2023-02-15T13:11:13;-18348.69;;;11.91;100.00
24746;BME280;12845;52.042;6.838;2023-02-15T13:16:17;-18352.09;;;12.04;100.00
24746;BME280;12845;52.042;6.838;2023-02-15T13:18:45;-18354.44;;;12.13;100.00
24746;BME280;12845;52.042;6.838;2023-02-15T13:21:14;-18357.88;;;12.26;100.00
24746;BME280;12845;52.042;6.838;2023-02-15T13:23:45;-18359.78;;;12.33;100.00
24746;BME280;12845;52.042;6.838;2023-02-15T13:26:14;-18362.94;;;12.45;100.00
24746;BME280;12845;52.042;6.838;2023-02-15T13:28:44;-18365.00;;;12.52;100.00
24746;BME280;12845;52.042;6.838;2023-02-15T13:31:14;-18366.38;;;12.57;100.00
24746;BME280;12845;52.042;6.838;2023-02-15T13:33:40;-18368.84;;;12.67;100.00
24746;BME280;12845;52.042;6.838;2023-02-15T13:41:05;-18374.47;;;12.87;100.00
24746;BME280;12845;52.042;6.838;2023-02-15T13:48:42;-18378.84;;;13.04;100.00
24746;BME280;12845;52.042;6.838;2023-02-15T13:51:13;-18378.84;;;13.04;100.00
24746;BME280;12845;52.042;6.838;2023-02-15T14:01:16;-18380.91;;;13.12;100.00
24746;BME280;12845;52.042;6.838;2023-02-15T14:08:54;-18381.47;;;13.14;100.00
24746;BME280;12845;52.042;6.838;2023-02-15T14:14:02;-18384.19;;;13.24;100.00
24746;BME280;12845;52.042;6.838;2023-02-15T14:16:54;-18384.63;;;13.25;100.00
24746;BME280;12845;52.042;6.838;2023-02-15T14:19:28;-18385.28;;;13.28;100.00
24746;BME280;12845;52.042;6.838;2023-02-15T14:21:57;-18381.72;;;13.15;100.00
24746;BME280;12845;52.042;6.838;2023-02-15T14:24:27;-18380.91;;;13.12;100.00
24746;BME280;12845;52.042;6.838;2023-02-15T14:29:33;-18377.34;;;12.98;100.00
24746;BME280;12845;52.042;6.838;2023-02-15T14:32:25;-18376.25;;;12.94;100.00
24746;BME280;12845;52.042;6.838;2023-02-15T14:34:58;-18373.78;;;12.85;100.00
24746;BME280;12845;52.042;6.838;2023-02-15T14:37:46;-18372.41;;;12.80;100.00
24746;BME280;12845;52.042;6.838;2023-02-15T14:43:15;-18368.72;;;12.66;100.00
24746;BME280;12845;52.042;6.838;2023-02-15T14:45:55;-18368.16;;;12.64;100.00
24746;BME280;12845;52.042;6.838;2023-02-15T14:48:33;-18366.66;;;12.58;100.00
24746;BME280;12845;52.042;6.838;2023-02-15T14:51:09;-18364.88;;;12.52;100.00
24746;BME280;12845;52.042;6.838;2023-02-15T14:53:39;-18363.22;;;12.46;100.00
24746;BME280;12845;52.042;6.838;2023-02-15T14:56:12;-18362.00;;;12.41;100.00
24746;BME280;12845;52.042;6.838;2023-02-15T14:58:54;-18359.66;;;12.32;100.00
24746;BME280;12845;52.042;6.838;2023-02-15T15:01:30;-18357.72;;;12.25;100.00
24746;BME280;12845;52.042;6.838;2023-02-15T15:03:58;-18355.69;;;12.17;100.00
24746;BME280;12845;52.042;6.838;2023-02-15T15:06:29;-18353.63;;;12.10;100.00
24746;BME280;12845;52.042;6.838;2023-02-15T15:08:58;-18352.66;;;12.06;100.00
24746;BME280;12845;52.042;6.838;2023-02-15T15:14:00;-18349.78;;;11.95;100.00